Time;durP1;ratioP1;P1;durP2;ratioP2;P2;SDS_P1;SDS_P2;PMS_P1;PMS_P2;Temp;Humidity;BMP_temperature;BMP_pressure;BME280_temperature;BME280_humidity;BME280_pressure;Samples;Min_cycle;Max_cycle;Signal;HPM_P1;HPM_P2
2023/10/30 00:02:17;;;;;;;;;;;;;;;14.23;77.18;100499.75;5114637;27;20372;-82
2023/10/30 00:04:42;;;;;;;;;;;;;;;14.34;76.58;100503.50;5139418;27;19919;-82
2023/10/30 00:07:07;;;;;;;;;;;;;;;14.75;73.23;100507.16;5118728;27;19923;-82
2023/10/30 00:09:32;;;;;;;;;;;;;;;14.40;74.49;100510.59;5123371;27;20332;-83
2023/10/30 00:11:58;;;;;;;;;;;;;;;14.90;72.88;100503.97;5110586;27;19927;-82
2023/10/30 00:14:24;;;;;;;;;;;;;;;14.58;74.27;100496.28;5103139;27;19922;-82
2023/10/30 00:16:49;;;;;;;;;;;;;;;14.70;73.43;100498.16;5127405;27;19920;-83
2023/10/30 00:19:14;;;;;;;;;;;;;;;14.25;76.05;100496.84;5109732;28;19939;-83
2023/10/30 00:21:40;;;;;;;;;;;;;;;14.25;76.64;100494.16;5113558;27;20368;-82
2023/10/30 00:24:05;;;;;;;;;;;;;;;13.94;78.71;100490.75;5111345;28;19915;-82
2023/10/30 00:26:31;;;;;;;;;;;;;;;14.20;75.11;100500.25;5127107;27;19911;-82
2023/10/30 00:28:57;;;;;;;;;;;;;;;14.29;74.51;100499.91;5128221;27;19971;-82
2023/10/30 00:31:22;;;;;;;;;;;;;;;14.31;73.28;100495.91;5114214;27;19997;-82
2023/10/30 00:33:48;;;;;;;;;;;;;;;14.49;72.56;100502.25;5106312;28;20011;-82
2023/10/30 00:36:13;;;;;;;;;;;;;;;14.65;69.40;100506.91;5102159;28;19915;-82
2023/10/30 00:38:39;;;;;;;;;;;;;;;14.16;72.11;100511.63;5110676;27;19924;-81
2023/10/30 00:41:07;;;;;;;;;;;;;;;14.24;72.71;100509.47;5110236;27;19916;-81
2023/10/30 00:43:33;;;;;;;;;;;;;;;14.06;72.27;100506.88;5109067;28;20385;-83
2023/10/30 00:45:58;;;;;;;;;;;;;;;13.86;73.73;100499.94;5120559;27;19916;-82
2023/10/30 00:48:25;;;;;;;;;;;;;;;13.52;75.95;100504.16;5115610;27;19915;-83
2023/10/30 00:50:50;;;;;;;;;;;;;;;13.70;75.60;100507.84;5109871;28;19916;-82
2023/10/30 00:53:16;;;;;;;;;;;;;;;13.68;75.97;100512.59;5114323;27;19919;-83
2023/10/30 00:55:41;;;;;;;;;;;;;;;13.98;74.01;100507.22;5110703;28;19916;-82
2023/10/30 00:58:07;;;;;;;;;;;;;;;14.09;72.73;100509.06;5113583;27;19918;-82
2023/10/30 01:00:33;;;;;;;;;;;;;;;13.38;77.01;100505.38;5128850;27;19923;-82
2023/10/30 01:02:59;;;;;;;;;;;;;;;13.01;79.02;100500.03;5113068;27;20407;-81
2023/10/30 01:05:24;;;;;;;;;;;;;;;12.98;79.49;100497.81;5122146;27;19915;-83
2023/10/30 01:07:50;;;;;;;;;;;;;;;12.83;80.99;100517.75;5109935;27;20013;-83
2023/10/30 01:10:16;;;;;;;;;;;;;;;13.53;77.40;100510.34;5110047;27;19959;-81
2023/10/30 01:12:41;;;;;;;;;;;;;;;14.12;73.88;100513.16;5110300;28;19969;-82
2023/10/30 01:15:07;;;;;;;;;;;;;;;13.85;75.70;100505.53;5119418;27;19920;-82
2023/10/30 01:17:32;;;;;;;;;;;;;;;13.69;76.43;100511.53;5111270;27;20017;-82
2023/10/30 01:19:59;;;;;;;;;;;;;;;13.41;78.39;100507.63;5108591;28;20398;-82
2023/10/30 01:22:25;;;;;;;;;;;;;;;13.64;77.97;100506.88;5112852;27;20394;-82
2023/10/30 01:24:50;;;;;;;;;;;;;;;13.87;76.70;100511.47;5123737;27;19920;-82
2023/10/30 01:27:18;;;;;;;;;;;;;;;13.87;76.28;100511.47;5125055;27;20056;-82
2023/10/30 01:29:43;;;;;;;;;;;;;;;13.84;76.05;100517.31;5109056;27;19915;-83
2023/10/30 01:32:08;;;;;;;;;;;;;;;13.80;76.00;100510.78;5112211;27;19941;-82
2023/10/30 01:34:36;;;;;;;;;;;;;;;13.78;76.09;100520.91;5112813;27;19923;-82
2023/10/30 01:37:02;;;;;;;;;;;;;;;13.63;77.03;100510.63;5118004;27;19920;-82
2023/10/30 01:39:27;;;;;;;;;;;;;;;13.77;76.93;100504.00;5141840;27;19915;-82
2023/10/30 01:41:53;;;;;;;;;;;;;;;13.81;75.88;100507.03;5125865;27;19915;-82
2023/10/30 01:44:18;;;;;;;;;;;;;;;13.79;75.61;100501.91;5111305;27;20453;-82
2023/10/30 01:46:43;;;;;;;;;;;;;;;13.64;76.42;100505.00;5120503;27;19916;-82
2023/10/30 01:49:09;;;;;;;;;;;;;;;13.74;76.61;100506.31;5121665;27;20421;-81
2023/10/30 01:51:34;;;;;;;;;;;;;;;13.37;78.93;100501.06;5127503;27;19915;-81
2023/10/30 01:53:59;;;;;;;;;;;;;;;13.02;81.59;100493.66;5116786;27;19923;-82
2023/10/30 01:56:25;;;;;;;;;;;;;;;13.15;82.13;100493.47;5107986;28;19919;-81
2023/10/30 01:58:51;;;;;;;;;;;;;;;13.44;79.21;100501.78;5107880;28;19916;-82
2023/10/30 02:01:17;;;;;;;;;;;;;;;13.57;78.00;100496.25;5118485;27;20371;-82
2023/10/30 02:03:42;;;;;;;;;;;;;;;13.48;78.78;100502.16;5112412;27;20373;-83
2023/10/30 02:06:07;;;;;;;;;;;;;;;13.49;77.99;100498.44;5101502;27;19915;-82
2023/10/30 02:08:33;;;;;;;;;;;;;;;13.70;77.86;100495.25;5108125;27;20348;-82
2023/10/30 02:10:58;;;;;;;;;;;;;;;13.63;77.71;100506.06;5108962;28;19972;-83
2023/10/30 02:13:23;;;;;;;;;;;;;;;13.92;76.92;100508.94;5111347;27;20018;-82
2023/10/30 02:15:49;;;;;;;;;;;;;;;12.85;81.94;100517.50;5107614;28;19920;-82
2023/10/30 02:18:14;;;;;;;;;;;;;;;13.16;80.71;100505.84;5109761;28;20291;-82
2023/10/30 02:20:40;;;;;;;;;;;;;;;13.41;79.28;100502.25;5128287;27;19973;-81
2023/10/30 02:23:05;;;;;;;;;;;;;;;12.55;82.69;100498.69;5108047;28;19937;-82
2023/10/30 02:25:32;;;;;;;;;;;;;;;12.25;84.40;100504.72;5113619;27;19916;-82
2023/10/30 02:27:58;;;;;;;;;;;;;;;12.62;82.81;100505.59;5116395;27;20372;-82
2023/10/30 02:30:25;;;;;;;;;;;;;;;12.96;81.83;100505.25;5126772;27;19922;-82
2023/10/30 02:32:51;;;;;;;;;;;;;;;12.99;81.10;100510.16;5110805;27;20281;-82
2023/10/30 02:35:17;;;;;;;;;;;;;;;13.01;81.66;100519.59;5126031;27;19920;-82
2023/10/30 02:37:42;;;;;;;;;;;;;;;13.10;80.21;100522.81;5108126;28;19920;-82
2023/10/30 02:40:08;;;;;;;;;;;;;;;13.21;79.15;100514.00;5123140;28;19915;-81
2023/10/30 02:42:34;;;;;;;;;;;;;;;12.93;80.46;100514.53;5113128;28;20369;-82
2023/10/30 02:44:59;;;;;;;;;;;;;;;12.79;81.16;100516.56;5112227;28;19968;-82
2023/10/30 02:47:25;;;;;;;;;;;;;;;12.23;84.65;100514.81;5109057;28;20656;-83
2023/10/30 02:49:50;;;;;;;;;;;;;;;11.90;86.92;100518.56;5111967;28;19919;-82
2023/10/30 02:52:15;;;;;;;;;;;;;;;11.96;86.92;100523.03;5111165;28;20376;-82
2023/10/30 02:54:41;;;;;;;;;;;;;;;12.38;84.55;100520.66;5118304;28;19927;-83
2023/10/30 02:57:06;;;;;;;;;;;;;;;11.96;87.29;100520.38;5113890;28;19915;-82
2023/10/30 02:59:31;;;;;;;;;;;;;;;11.89;88.61;100522.28;5111297;28;20026;-82
2023/10/30 03:01:58;;;;;;;;;;;;;;;12.20;87.01;100523.28;5110588;28;19923;-83
2023/10/30 03:04:24;;;;;;;;;;;;;;;11.93;88.17;100520.81;5109109;28;19919;-83
2023/10/30 03:06:49;;;;;;;;;;;;;;;11.62;90.30;100522.41;5122551;27;19915;-83
2023/10/30 03:09:14;;;;;;;;;;;;;;;11.74;88.17;100525.22;5111788;27;19915;-83
2023/10/30 03:11:39;;;;;;;;;;;;;;;12.11;85.61;100530.75;5113160;27;19916;-83
2023/10/30 03:14:06;;;;;;;;;;;;;;;11.82;86.99;100526.81;5127310;27;20265;-83
2023/10/30 03:16:31;;;;;;;;;;;;;;;11.58;88.82;100520.38;5134237;27;19916;-83
2023/10/30 03:18:56;;;;;;;;;;;;;;;11.42;89.29;100519.00;5116933;27;19915;-82
2023/10/30 03:21:22;;;;;;;;;;;;;;;11.68;89.63;100514.56;5132245;27;19915;-82
2023/10/30 03:23:48;;;;;;;;;;;;;;;12.26;86.86;100517.88;5115051;27;20303;-81
2023/10/30 03:26:13;;;;;;;;;;;;;;;11.95;88.56;100516.06;5095032;28;19927;-82
2023/10/30 03:28:38;;;;;;;;;;;;;;;12.46;84.43;100523.06;5122389;27;19915;-83
2023/10/30 03:31:07;;;;;;;;;;;;;;;12.60;83.67;100525.59;5120037;27;19923;-81
2023/10/30 03:33:33;;;;;;;;;;;;;;;12.14;85.76;100529.50;5110792;28;19916;-81
2023/10/30 03:35:58;;;;;;;;;;;;;;;11.61;89.04;100526.13;5114274;27;19912;-82
2023/10/30 03:38:23;;;;;;;;;;;;;;;11.26;90.19;100523.81;5122778;27;19922;-82
2023/10/30 03:40:48;;;;;;;;;;;;;;;10.90;89.68;100518.22;5111480;27;19947;-82
2023/10/30 03:43:16;;;;;;;;;;;;;;;10.57;90.55;100522.59;5112385;27;19915;-82
2023/10/30 03:45:41;;;;;;;;;;;;;;;10.41;92.02;100523.81;5117816;27;19922;-82
2023/10/30 03:48:06;;;;;;;;;;;;;;;10.33;91.76;100529.38;5112275;28;19916;-82
2023/10/30 03:50:31;;;;;;;;;;;;;;;10.86;89.06;100539.97;5112042;28;19922;-82
2023/10/30 03:52:57;;;;;;;;;;;;;;;11.03;88.15;100543.00;5113328;27;19950;-83
2023/10/30 03:55:22;;;;;;;;;;;;;;;11.26;86.43;100539.84;5114379;27;19915;-82
2023/10/30 03:57:47;;;;;;;;;;;;;;;11.18;87.65;100541.94;5111630;28;19922;-83
2023/10/30 04:00:13;;;;;;;;;;;;;;;11.71;86.09;100548.88;5110838;27;19957;-82
2023/10/30 04:02:39;;;;;;;;;;;;;;;11.40;88.04;100529.94;5124970;27;19946;-83
2023/10/30 04:05:05;;;;;;;;;;;;;;;11.25;90.15;100540.88;5111930;27;19920;-82
2023/10/30 04:07:30;;;;;;;;;;;;;;;11.17;91.80;100541.09;5110226;27;19915;-81
2023/10/30 04:09:55;;;;;;;;;;;;;;;11.17;90.87;100540.28;5110701;27;19911;-82
2023/10/30 04:12:20;;;;;;;;;;;;;;;11.02;92.39;100540.56;5130408;27;19998;-82
2023/10/30 04:14:46;;;;;;;;;;;;;;;10.98;92.49;100542.00;5112409;27;19923;-81
2023/10/30 04:17:11;;;;;;;;;;;;;;;11.10;91.68;100540.31;5126876;27;19915;-81
2023/10/30 04:19:38;;;;;;;;;;;;;;;11.22;90.17;100535.97;5123034;27;19934;-82
2023/10/30 04:22:03;;;;;;;;;;;;;;;10.95;91.98;100537.91;5114525;27;20010;-82
2023/10/30 04:24:29;;;;;;;;;;;;;;;10.93;92.09;100539.97;5111898;27;20057;-81
2023/10/30 04:26:54;;;;;;;;;;;;;;;11.17;91.24;100541.09;5113693;27;19916;-82
2023/10/30 04:29:19;;;;;;;;;;;;;;;11.36;89.54;100544.75;5111021;27;19926;-83
2023/10/30 04:31:45;;;;;;;;;;;;;;;11.43;89.03;100550.03;5111127;27;20289;-82
2023/10/30 04:34:10;;;;;;;;;;;;;;;11.19;90.38;100552.38;5122573;27;19915;-82
2023/10/30 04:36:35;;;;;;;;;;;;;;;11.24;90.34;100546.44;5112389;27;19927;-81
2023/10/30 04:39:00;;;;;;;;;;;;;;;10.92;92.24;100554.31;5117058;27;20015;-82
2023/10/30 04:41:26;;;;;;;;;;;;;;;11.11;90.23;100551.81;5115014;27;19915;-81
2023/10/30 04:43:51;;;;;;;;;;;;;;;11.12;90.77;100550.78;5127115;27;19958;-81
2023/10/30 04:46:17;;;;;;;;;;;;;;;11.18;90.42;100548.09;5117138;27;20684;-80
2023/10/30 04:48:42;;;;;;;;;;;;;;;11.10;90.40;100548.31;5111776;27;19919;-82
2023/10/30 04:51:07;;;;;;;;;;;;;;;11.18;90.12;100548.09;5124255;27;19918;-82
2023/10/30 04:53:33;;;;;;;;;;;;;;;10.92;91.75;100548.16;5111527;27;19915;-82
2023/10/30 04:55:59;;;;;;;;;;;;;;;10.96;91.86;100552.06;5112699;27;19924;-82
2023/10/30 04:58:24;;;;;;;;;;;;;;;10.98;91.61;100563.34;5119788;27;19915;-82
2023/10/30 05:00:50;;;;;;;;;;;;;;;10.90;92.44;100566.25;5113505;27;19934;-83
2023/10/30 05:03:16;;;;;;;;;;;;;;;10.70;92.84;100560.94;5111367;27;19922;-82
2023/10/30 05:05:41;;;;;;;;;;;;;;;10.60;93.10;100564.00;5113154;27;19926;-82
2023/10/30 05:08:06;;;;;;;;;;;;;;;10.52;93.32;100564.22;5109724;28;20026;-83
2023/10/30 05:10:32;;;;;;;;;;;;;;;10.19;92.65;100562.34;5140298;27;19915;-82
2023/10/30 05:12:57;;;;;;;;;;;;;;;9.96;92.80;100563.56;5112467;27;20505;-82
2023/10/30 05:15:23;;;;;;;;;;;;;;;10.68;89.45;100561.13;5122930;27;19919;-83
2023/10/30 05:17:48;;;;;;;;;;;;;;;10.78;87.68;100563.38;5129850;27;19922;-81
2023/10/30 05:20:13;;;;;;;;;;;;;;;10.52;89.74;100564.22;5119496;27;19915;-82
2023/10/30 05:22:39;;;;;;;;;;;;;;;10.24;90.93;100568.72;5115358;27;19926;-83
2023/10/30 05:25:05;;;;;;;;;;;;;;;10.14;92.71;100567.50;5111692;27;20321;-82
2023/10/30 05:27:31;;;;;;;;;;;;;;;9.94;93.79;100568.25;5112143;27;19922;-83
2023/10/30 05:29:57;;;;;;;;;;;;;;;10.45;90.30;100573.06;5125521;27;19920;-82
2023/10/30 05:32:22;;;;;;;;;;;;;;;11.06;87.28;100557.78;5129802;27;19916;-81
2023/10/30 05:34:48;;;;;;;;;;;;;;;11.25;86.31;100564.88;5127932;27;19919;-82
2023/10/30 05:37:14;;;;;;;;;;;;;;;11.36;86.50;100570.59;5117869;27;20297;-82
2023/10/30 05:39:39;;;;;;;;;;;;;;;11.53;85.39;100569.09;5104339;27;20056;-81
2023/10/30 05:42:05;;;;;;;;;;;;;;;11.52;85.75;100572.78;5125194;27;19918;-82
2023/10/30 05:44:31;;;;;;;;;;;;;;;11.16;89.74;100570.69;5122561;27;19916;-82
2023/10/30 05:46:57;;;;;;;;;;;;;;;11.35;87.72;100587.66;5108471;28;19916;-82
2023/10/30 05:49:22;;;;;;;;;;;;;;;11.71;86.49;100578.25;5109958;28;19912;-82
2023/10/30 05:51:47;;;;;;;;;;;;;;;11.89;85.51;100591.78;5125890;27;19916;-83
2023/10/30 05:54:12;;;;;;;;;;;;;;;11.24;88.99;100584.63;5142133;27;19916;-82
2023/10/30 05:56:38;;;;;;;;;;;;;;;11.11;90.07;100584.66;5108996;27;20361;-81
2023/10/30 05:59:03;;;;;;;;;;;;;;;11.22;90.82;100576.00;5096466;28;19969;-82
2023/10/30 06:01:28;;;;;;;;;;;;;;;11.31;90.00;100592.59;5125462;27;20031;-83
2023/10/30 06:03:54;;;;;;;;;;;;;;;11.31;90.47;100583.78;5106068;28;20010;-82
2023/10/30 06:06:19;;;;;;;;;;;;;;;11.42;90.40;100591.97;5113433;27;19912;-81
2023/10/30 06:08:44;;;;;;;;;;;;;;;11.90;87.93;100585.38;5109618;28;19922;-82
2023/10/30 06:11:10;;;;;;;;;;;;;;;12.51;84.06;100596.50;5121190;27;19927;-82
2023/10/30 06:13:36;;;;;;;;;;;;;;;13.03;81.86;100588.97;5114446;27;19980;-82
2023/10/30 06:16:02;;;;;;;;;;;;;;;13.19;79.91;100596.44;5107854;27;19919;-82
2023/10/30 06:18:27;;;;;;;;;;;;;;;13.36;79.18;100585.16;5109181;28;19922;-82
2023/10/30 06:20:52;;;;;;;;;;;;;;;13.09;81.30;100590.78;5109524;28;19962;-83
2023/10/30 06:23:18;;;;;;;;;;;;;;;13.17;81.36;100587.00;5110280;28;20273;-82
2023/10/30 06:25:44;;;;;;;;;;;;;;;13.47;79.22;100600.47;5115515;27;19919;-82
2023/10/30 06:28:14;;;;;;;;;;;;;;;13.79;77.88;100594.91;5114239;28;19916;-82
2023/10/30 06:30:40;;;;;;;;;;;;;;;13.99;77.27;100600.81;5118026;27;19923;-82
2023/10/30 06:33:05;;;;;;;;;;;;;;;14.42;75.13;100605.09;5133402;27;19915;-82
2023/10/30 06:35:30;;;;;;;;;;;;;;;14.51;74.12;100608.28;5133156;27;19915;-82
2023/10/30 06:37:56;;;;;;;;;;;;;;;14.60;74.09;100606.91;5125027;27;19915;-83
2023/10/30 06:40:21;;;;;;;;;;;;;;;14.84;72.29;100606.94;5128623;28;20049;-83
2023/10/30 06:42:47;;;;;;;;;;;;;;;14.63;74.83;100611.03;5117924;28;19923;-83
2023/10/30 06:45:12;;;;;;;;;;;;;;;14.92;72.75;100619.19;5117030;28;20267;-83
2023/10/30 06:47:37;;;;;;;;;;;;;;;14.90;72.81;100615.94;5118980;28;19941;-83
2023/10/30 06:50:03;;;;;;;;;;;;;;;15.23;71.93;100616.13;5110069;28;19925;-82
2023/10/30 06:52:28;;;;;;;;;;;;;;;15.14;72.09;100622.94;5117876;28;19920;-83
2023/10/30 06:54:53;;;;;;;;;;;;;;;15.19;72.66;100614.16;5115591;28;19915;-82
2023/10/30 06:57:19;;;;;;;;;;;;;;;15.42;71.05;100616.78;5109507;28;19959;-82
2023/10/30 06:59:44;;;;;;;;;;;;;;;15.56;70.21;100621.91;5112307;28;19980;-82
2023/10/30 07:02:10;;;;;;;;;;;;;;;15.67;70.17;100621.03;5111566;28;20332;-83
2023/10/30 07:04:35;;;;;;;;;;;;;;;15.78;69.99;100617.53;5111257;28;19920;-82
2023/10/30 07:07:01;;;;;;;;;;;;;;;15.94;69.90;100609.75;5112138;28;19968;-82
2023/10/30 07:09:29;;;;;;;;;;;;;;;16.05;69.78;100607.00;5110405;28;19915;-82
2023/10/30 07:11:54;;;;;;;;;;;;;;;16.35;69.52;100622.06;5109947;28;19916;-83
2023/10/30 07:14:19;;;;;;;;;;;;;;;16.69;67.21;100627.44;5108464;28;20019;-83
2023/10/30 07:16:44;;;;;;;;;;;;;;;16.69;67.84;100622.03;5123842;28;20027;-82
2023/10/30 07:19:10;;;;;;;;;;;;;;;16.82;68.20;100624.44;5110961;28;20342;-82
2023/10/30 07:21:35;;;;;;;;;;;;;;;17.03;67.02;100622.03;5109328;28;19919;-80
2023/10/30 07:24:00;;;;;;;;;;;;;;;17.29;65.96;100625.09;5109358;28;20014;-82
2023/10/30 07:26:25;;;;;;;;;;;;;;;17.60;65.22;100620.88;5108561;28;19938;-81
2023/10/30 07:28:51;;;;;;;;;;;;;;;17.71;62.89;100627.22;5107446;28;19919;-83
2023/10/30 07:31:20;;;;;;;;;;;;;;;17.66;63.71;100623.38;5100416;28;20285;-82
2023/10/30 07:33:45;;;;;;;;;;;;;;;17.78;62.63;100633.25;5108790;28;19916;-81
2023/10/30 07:36:11;;;;;;;;;;;;;;;17.84;61.68;100626.88;5113696;28;19923;-83
2023/10/30 07:38:36;;;;;;;;;;;;;;;17.79;62.27;100621.38;5107715;28;19916;-83
2023/10/30 07:41:02;;;;;;;;;;;;;;;18.04;61.64;100624.38;5107879;28;19955;-81
2023/10/30 07:43:27;;;;;;;;;;;;;;;18.16;60.79;100618.78;5107654;28;20915;-80
2023/10/30 07:45:53;;;;;;;;;;;;;;;18.14;60.91;100614.72;5107664;28;19922;-82
2023/10/30 07:48:18;;;;;;;;;;;;;;;18.36;59.40;100623.56;5109685;28;20006;-81
2023/10/30 07:50:43;;;;;;;;;;;;;;;18.22;59.82;100616.97;5109487;28;19920;-82
2023/10/30 07:53:09;;;;;;;;;;;;;;;18.64;59.35;100624.34;5110703;28;19916;-81
2023/10/30 07:55:36;;;;;;;;;;;;;;;18.75;58.38;100628.72;5111252;28;20300;-80
2023/10/30 07:58:03;;;;;;;;;;;;;;;18.76;57.36;100624.97;5111479;27;19920;-81
2023/10/30 08:00:28;;;;;;;;;;;;;;;18.84;57.41;100619.13;5111223;28;19919;-81
2023/10/30 08:02:54;;;;;;;;;;;;;;;18.97;57.41;100617.84;5112251;27;19922;-82
2023/10/30 08:05:19;;;;;;;;;;;;;;;19.10;55.87;100610.34;5110009;28;19924;-80
2023/10/30 08:07:44;;;;;;;;;;;;;;;19.31;54.89;100614.78;5111551;27;19915;-82
2023/10/30 08:10:11;;;;;;;;;;;;;;;19.12;56.41;100609.00;5098760;28;20644;-82
2023/10/30 08:12:37;;;;;;;;;;;;;;;19.44;56.36;100614.28;5109640;27;20365;-81
2023/10/30 08:15:03;;;;;;;;;;;;;;;19.57;54.40;100612.97;5112475;27;19930;-82
2023/10/30 08:17:29;;;;;;;;;;;;;;;19.94;53.60;100600.38;5104684;27;19958;-82
2023/10/30 08:19:54;;;;;;;;;;;;;;;19.90;53.98;100608.25;5114581;27;19916;-82
2023/10/30 08:22:19;;;;;;;;;;;;;;;20.00;53.74;100602.84;5114163;27;20335;-82
2023/10/30 08:24:44;;;;;;;;;;;;;;;19.91;53.02;100603.63;5106400;27;20299;-83
2023/10/30 08:27:10;;;;;;;;;;;;;;;19.94;52.52;100603.09;5111034;28;20299;-82
2023/10/30 08:29:35;;;;;;;;;;;;;;;20.28;51.98;100598.78;5112846;27;19920;-81
2023/10/30 08:32:00;;;;;;;;;;;;;;;20.47;51.53;100600.94;5110808;28;19915;-81
2023/10/30 08:34:26;;;;;;;;;;;;;;;20.25;51.96;100603.94;5110538;27;19923;-81
2023/10/30 08:36:52;;;;;;;;;;;;;;;20.45;52.12;100614.78;5108597;28;19924;-81
2023/10/30 08:39:17;;;;;;;;;;;;;;;20.60;50.11;100607.75;5109847;27;19929;-80
2023/10/30 08:41:42;;;;;;;;;;;;;;;20.51;50.66;100607.44;5111006;28;19915;-81
2023/10/30 08:44:07;;;;;;;;;;;;;;;20.54;50.55;100603.41;5110165;28;20022;-81
2023/10/30 08:46:33;;;;;;;;;;;;;;;20.64;50.95;100611.56;5110329;27;20387;-80
2023/10/30 08:48:59;;;;;;;;;;;;;;;20.77;50.75;100605.56;5109272;27;19916;-80
2023/10/30 08:51:24;;;;;;;;;;;;;;;21.20;49.42;100603.28;5105987;28;20372;-81
2023/10/30 08:53:50;;;;;;;;;;;;;;;21.28;48.56;100610.03;5109860;28;19947;-81
2023/10/30 08:56:16;;;;;;;;;;;;;;;21.25;48.63;100605.97;5109920;28;20018;-80
2023/10/30 08:58:41;;;;;;;;;;;;;;;21.16;48.83;100602.22;5109582;27;20368;-82
2023/10/30 09:01:06;;;;;;;;;;;;;;;21.51;47.58;100607.81;5094227;28;19923;-82
2023/10/30 09:03:31;;;;;;;;;;;;;;;21.61;49.57;100589.56;5109401;28;19916;-82
2023/10/30 09:05:57;;;;;;;;;;;;;;;21.70;49.31;100580.81;5108217;28;19938;-82
2023/10/30 09:08:22;;;;;;;;;;;;;;;22.24;47.23;100579.94;5108907;28;20419;-81
2023/10/30 09:10:47;;;;;;;;;;;;;;;22.07;47.63;100586.56;5113625;27;19912;-82
2023/10/30 09:13:13;;;;;;;;;;;;;;;22.00;46.88;100586.06;5110671;27;19919;-82
2023/10/30 09:15:38;;;;;;;;;;;;;;;22.24;46.76;100569.06;5105384;28;20339;-82
2023/10/30 09:18:04;;;;;;;;;;;;;;;21.72;48.91;100575.94;5098623;28;19916;-82
2023/10/30 09:20:29;;;;;;;;;;;;;;;21.62;50.15;100574.91;5108118;28;20531;-82
2023/10/30 09:22:54;;;;;;;;;;;;;;;22.52;47.98;100572.09;5108734;28;19915;-82
2023/10/30 09:25:20;;;;;;;;;;;;;;;22.34;49.80;100566.28;5108072;28;19922;-82
2023/10/30 09:27:45;;;;;;;;;;;;;;;22.31;50.45;100564.09;5108533;27;20368;-81
2023/10/30 09:30:11;;;;;;;;;;;;;;;22.50;47.46;100563.44;5108502;28;19912;-82
2023/10/30 09:32:36;;;;;;;;;;;;;;;22.65;48.76;100560.53;5108820;28;20415;-82
2023/10/30 09:35:03;;;;;;;;;;;;;;;23.12;46.17;100553.50;5109819;27;19966;-82
2023/10/30 09:37:28;;;;;;;;;;;;;;;23.14;47.05;100550.50;5125608;27;19916;-82
2023/10/30 09:39:53;;;;;;;;;;;;;;;22.74;49.33;100536.25;5112763;27;19923;-82
2023/10/30 09:42:19;;;;;;;;;;;;;;;22.69;50.56;100542.56;5122844;27;19916;-82
2023/10/30 09:44:44;;;;;;;;;;;;;;;22.73;48.92;100540.06;5109605;28;19926;-82
2023/10/30 09:47:10;;;;;;;;;;;;;;;22.86;48.37;100537.47;5126606;27;19996;-82
2023/10/30 09:49:36;;;;;;;;;;;;;;;23.31;47.54;100539.13;5109344;27;19920;-83
2023/10/30 09:52:02;;;;;;;;;;;;;;;23.63;46.89;100535.69;5109027;28;19915;-82
2023/10/30 09:54:29;;;;;;;;;;;;;;;23.64;46.21;100535.41;5105318;28;19912;-82
2023/10/30 09:56:54;;;;;;;;;;;;;;;24.19;44.69;100525.84;5100210;28;19976;-82
2023/10/30 09:59:21;;;;;;;;;;;;;;;24.33;43.08;100532.13;5121223;27;19919;-83
2023/10/30 10:01:47;;;;;;;;;;;;;;;24.26;44.72;100521.63;5108294;28;20424;-82
2023/10/30 10:04:12;;;;;;;;;;;;;;;24.08;44.81;100518.97;5109059;28;20006;-82
2023/10/30 10:06:40;;;;;;;;;;;;;;;24.57;44.16;100518.38;5104794;28;19916;-83
2023/10/30 10:09:06;;;;;;;;;;;;;;;25.02;43.22;100520.50;5117153;27;19915;-83
2023/10/30 10:11:35;;;;;;;;;;;;;;;25.16;42.03;100513.09;5120778;27;19916;-83
2023/10/30 10:14:01;;;;;;;;;;;;;;;24.86;42.65;100518.06;5113264;27;19923;-83
2023/10/30 10:16:28;;;;;;;;;;;;;;;24.84;43.61;100509.38;5104704;28;19920;-83
2023/10/30 10:18:54;;;;;;;;;;;;;;;24.83;43.77;100507.78;5098380;27;20441;-83
2023/10/30 10:21:22;;;;;;;;;;;;;;;24.91;44.01;100502.69;5109464;28;19916;-84
2023/10/30 10:23:47;;;;;;;;;;;;;;;25.05;43.53;100493.41;5107962;28;19916;-83
2023/10/30 10:26:16;;;;;;;;;;;;;;;25.02;44.12;100504.13;5110662;27;20014;-82
2023/10/30 10:28:43;;;;;;;;;;;;;;;25.00;43.65;100498.97;5126795;27;19938;-83
2023/10/30 10:31:08;;;;;;;;;;;;;;;25.16;42.73;100491.25;5120175;27;20006;-83
2023/10/30 10:33:36;;;;;;;;;;;;;;;25.00;44.23;100479.06;5124789;27;20015;-84
2023/10/30 10:36:04;;;;;;;;;;;;;;;25.23;43.96;100488.97;5124883;27;19915;-84
2023/10/30 10:38:30;;;;;;;;;;;;;;;25.10;44.54;100478.84;5124317;27;19915;-83
2023/10/30 10:40:56;;;;;;;;;;;;;;;25.62;43.92;100471.13;5110859;28;19926;-83
2023/10/30 10:43:22;;;;;;;;;;;;;;;25.88;42.12;100475.16;5124467;27;20415;-83
2023/10/30 10:45:48;;;;;;;;;;;;;;;25.82;43.78;100471.72;5124412;27;20399;-83
2023/10/30 10:48:14;;;;;;;;;;;;;;;25.71;43.22;100470.38;5108586;28;19964;-82
2023/10/30 10:50:41;;;;;;;;;;;;;;;26.38;42.93;100466.78;5106659;28;19928;-83
2023/10/30 10:53:07;;;;;;;;;;;;;;;26.32;42.41;100465.31;5108753;28;20269;-83
2023/10/30 10:55:41;;;;;;;;;;;;;;;26.35;42.60;100462.72;5108739;27;19922;-83
2023/10/30 10:58:19;;;;;;;;;;;;;;;26.08;42.94;100457.47;5107112;28;20022;-83
2023/10/30 11:00:49;;;;;;;;;;;;;;;25.94;43.07;100457.53;5108953;28;19916;-83
2023/10/30 11:03:15;;;;;;;;;;;;;;;25.67;43.83;100454.59;5107134;28;19919;-83
2023/10/30 11:05:41;;;;;;;;;;;;;;;25.57;44.57;100454.06;5108315;28;20313;-83
2023/10/30 11:08:25;;;;;;;;;;;;;;;26.11;43.87;100451.34;5106955;28;19970;-82
2023/10/30 11:10:56;;;;;;;;;;;;;;;26.40;42.63;100446.19;5108359;28;20303;-83
2023/10/30 11:13:39;;;;;;;;;;;;;;;26.85;41.97;100446.03;5089461;28;20623;-83
2023/10/30 11:16:04;;;;;;;;;;;;;;;26.48;42.94;100432.84;5109297;28;19915;-83
2023/10/30 11:18:32;;;;;;;;;;;;;;;26.30;43.65;100435.53;5106869;28;20269;-83
2023/10/30 11:21:13;;;;;;;;;;;;;;;26.21;44.26;100429.22;5106942;28;20007;-83
2023/10/30 11:23:44;;;;;;;;;;;;;;;26.65;42.51;100430.22;5091184;28;19922;-83
2023/10/30 11:26:10;;;;;;;;;;;;;;;26.45;43.07;100413.22;5109202;28;19919;-82
2023/10/30 11:28:36;;;;;;;;;;;;;;;26.22;43.60;100403.50;5110749;28;19975;-82
2023/10/30 11:31:07;;;;;;;;;;;;;;;27.07;42.26;100408.69;5112053;28;19923;-82
2023/10/30 11:33:32;;;;;;;;;;;;;;;27.53;40.81;100407.25;5111653;27;20350;-83
2023/10/30 11:36:16;;;;;;;;;;;;;;;27.42;41.48;100406.78;5112131;28;20368;-83
2023/10/30 11:38:47;;;;;;;;;;;;;;;27.63;41.12;100395.94;5110666;28;19920;-83
2023/10/30 11:41:14;;;;;;;;;;;;;;;27.80;41.96;100399.78;5111496;28;19915;-83
2023/10/30 11:43:41;;;;;;;;;;;;;;;28.00;40.67;100396.34;5109892;28;20293;-82
2023/10/30 11:46:06;;;;;;;;;;;;;;;27.80;41.56;100388.81;5110884;28;20782;-84
2023/10/30 11:48:31;;;;;;;;;;;;;;;27.85;41.68;100385.91;5110225;28;20010;-83
2023/10/30 11:50:57;;;;;;;;;;;;;;;27.55;41.60;100382.28;5110200;28;19916;-84
2023/10/30 11:53:25;;;;;;;;;;;;;;;27.71;41.54;100379.81;5113557;27;19916;-83
2023/10/30 11:55:51;;;;;;;;;;;;;;;28.15;40.15;100372.25;5111765;28;19974;-83
2023/10/30 11:58:18;;;;;;;;;;;;;;;28.62;39.18;100369.44;5111428;28;19955;-84
2023/10/30 12:00:47;;;;;;;;;;;;;;;28.93;38.76;100368.22;5111468;28;20024;-83
2023/10/30 12:03:13;;;;;;;;;;;;;;;28.81;38.74;100355.25;5111679;27;19919;-83
2023/10/30 12:05:38;;;;;;;;;;;;;;;27.67;41.17;100346.00;5111376;28;19975;-83
2023/10/30 12:08:06;;;;;;;;;;;;;;;27.67;42.23;100351.47;5112344;27;19919;-83
2023/10/30 12:10:32;;;;;;;;;;;;;;;27.76;40.96;100353.03;5120388;27;19922;-82
2023/10/30 12:12:58;;;;;;;;;;;;;;;28.15;39.93;100339.34;5121894;27;19916;-83
2023/10/30 12:15:25;;;;;;;;;;;;;;;27.39;42.07;100329.94;5109841;28;19927;-82
2023/10/30 12:17:50;;;;;;;;;;;;;;;28.18;41.34;100338.72;5094471;28;19919;-83
2023/10/30 12:20:15;;;;;;;;;;;;;;;28.00;41.13;100333.28;5111227;28;19923;-84
2023/10/30 12:22:43;;;;;;;;;;;;;;;28.22;40.89;100334.97;5111310;28;20364;-83
2023/10/30 12:25:13;;;;;;;;;;;;;;;27.98;40.81;100324.59;5110255;27;19919;-84
2023/10/30 12:27:39;;;;;;;;;;;;;;;28.15;41.29;100326.44;5125731;27;19915;-83
2023/10/30 12:30:11;;;;;;;;;;;;;;;28.69;39.47;100331.31;5126643;27;19920;-83